sensor_id;sensor_type;location;lat;lon;timestamp;P1;durP1;ratioP1;P2;durP2;ratioP2
57891;SDS011;43708;48.828;9.166;2023-02-20T00:00:35;1.42;;;1.10;;
57891;SDS011;43708;48.828;9.166;2023-02-20T00:03:03;1.60;;;1.02;;
57891;SDS011;43708;48.828;9.166;2023-02-20T00:05:29;1.17;;;0.90;;
57891;SDS011;43708;48.828;9.166;2023-02-20T00:07:54;0.93;;;0.70;;
57891;SDS011;43708;48.828;9.166;2023-02-20T00:10:20;1.85;;;1.08;;
57891;SDS011;43708;48.828;9.166;2023-02-20T00:12:46;1.10;;;1.00;;
57891;SDS011;43708;48.828;9.166;2023-02-20T00:15:15;1.05;;;0.95;;
57891;SDS011;43708;48.828;9.166;2023-02-20T00:17:43;1.02;;;0.82;;
57891;SDS011;43708;48.828;9.166;2023-02-20T00:20:12;0.80;;;0.80;;
57891;SDS011;43708;48.828;9.166;2023-02-20T00:22:39;1.10;;;1.00;;
57891;SDS011;43708;48.828;9.166;2023-02-20T00:25:05;1.00;;;0.90;;
57891;SDS011;43708;48.828;9.166;2023-02-20T00:27:30;0.80;;;0.63;;
57891;SDS011;43708;48.828;9.166;2023-02-20T00:29:56;0.98;;;0.77;;
57891;SDS011;43708;48.828;9.166;2023-02-20T00:32:21;1.00;;;0.90;;
57891;SDS011;43708;48.828;9.166;2023-02-20T00:34:47;1.45;;;0.90;;
57891;SDS011;43708;48.828;9.166;2023-02-20T00:37:13;1.05;;;0.95;;
57891;SDS011;43708;48.828;9.166;2023-02-20T00:39:38;1.42;;;0.98;;
57891;SDS011;43708;48.828;9.166;2023-02-20T00:42:04;0.90;;;0.80;;
57891;SDS011;43708;48.828;9.166;2023-02-20T00:44:29;1.25;;;0.90;;
57891;SDS011;43708;48.828;9.166;2023-02-20T00:46:55;1.00;;;0.90;;
57891;SDS011;43708;48.828;9.166;2023-02-20T00:49:21;1.13;;;1.02;;
57891;SDS011;43708;48.828;9.166;2023-02-20T00:51:47;0.95;;;0.88;;
57891;SDS011;43708;48.828;9.166;2023-02-20T00:54:13;1.40;;;1.00;;
57891;SDS011;43708;48.828;9.166;2023-02-20T00:56:39;1.30;;;1.10;;
57891;SDS011;43708;48.828;9.166;2023-02-20T00:59:05;1.25;;;1.10;;
57891;SDS011;43708;48.828;9.166;2023-02-20T01:01:31;2.03;;;1.50;;
57891;SDS011;43708;48.828;9.166;2023-02-20T01:03:57;1.42;;;1.00;;
57891;SDS011;43708;48.828;9.166;2023-02-20T01:06:22;1.23;;;1.13;;
57891;SDS011;43708;48.828;9.166;2023-02-20T01:08:48;1.40;;;0.93;;
57891;SDS011;43708;48.828;9.166;2023-02-20T01:11:13;0.93;;;0.85;;
57891;SDS011;43708;48.828;9.166;2023-02-20T01:13:39;1.20;;;1.08;;
57891;SDS011;43708;48.828;9.166;2023-02-20T01:16:05;1.45;;;0.93;;
57891;SDS011;43708;48.828;9.166;2023-02-20T01:18:31;1.48;;;1.00;;
57891;SDS011;43708;48.828;9.166;2023-02-20T01:20:57;1.55;;;0.90;;
57891;SDS011;43708;48.828;9.166;2023-02-20T01:23:23;1.77;;;1.00;;
57891;SDS011;43708;48.828;9.166;2023-02-20T01:25:48;1.75;;;1.20;;
57891;SDS011;43708;48.828;9.166;2023-02-20T01:28:14;1.90;;;1.20;;
57891;SDS011;43708;48.828;9.166;2023-02-20T01:30:40;1.30;;;1.00;;
57891;SDS011;43708;48.828;9.166;2023-02-20T01:33:06;1.70;;;1.48;;
57891;SDS011;43708;48.828;9.166;2023-02-20T01:35:31;1.20;;;1.10;;
57891;SDS011;43708;48.828;9.166;2023-02-20T01:37:57;1.88;;;1.20;;
57891;SDS011;43708;48.828;9.166;2023-02-20T01:40:24;1.25;;;1.05;;
57891;SDS011;43708;48.828;9.166;2023-02-20T01:42:51;1.10;;;1.00;;
57891;SDS011;43708;48.828;9.166;2023-02-20T01:47:49;1.20;;;1.10;;
57891;SDS011;43708;48.828;9.166;2023-02-20T01:50:17;1.35;;;1.00;;
57891;SDS011;43708;48.828;9.166;2023-02-20T01:52:46;1.38;;;0.90;;
57891;SDS011;43708;48.828;9.166;2023-02-20T01:55:48;1.10;;;0.98;;
57891;SDS011;43708;48.828;9.166;2023-02-20T01:58:10;1.20;;;0.90;;
57891;SDS011;43708;48.828;9.166;2023-02-20T02:00:40;0.80;;;0.80;;
57891;SDS011;43708;48.828;9.166;2023-02-20T02:03:07;0.60;;;0.60;;
57891;SDS011;43708;48.828;9.166;2023-02-20T02:05:36;1.20;;;0.88;;
57891;SDS011;43708;48.828;9.166;2023-02-20T02:08:06;1.05;;;0.80;;
57891;SDS011;43708;48.828;9.166;2023-02-20T02:10:36;0.80;;;0.77;;
57891;SDS011;43708;48.828;9.166;2023-02-20T02:13:18;1.20;;;0.90;;
57891;SDS011;43708;48.828;9.166;2023-02-20T02:15:45;1.10;;;1.00;;
57891;SDS011;43708;48.828;9.166;2023-02-20T02:18:17;0.80;;;0.80;;
57891;SDS011;43708;48.828;9.166;2023-02-20T02:21:20;1.27;;;1.00;;
57891;SDS011;43708;48.828;9.166;2023-02-20T02:38:25;0.93;;;0.70;;
57891;SDS011;43708;48.828;9.166;2023-02-20T02:41:07;0.70;;;0.65;;
57891;SDS011;43708;48.828;9.166;2023-02-20T02:46:57;1.67;;;0.70;;
57891;SDS011;43708;48.828;9.166;2023-02-20T02:49:02;0.80;;;0.70;;
57891;SDS011;43708;48.828;9.166;2023-02-20T02:51:36;0.70;;;0.70;;
57891;SDS011;43708;48.828;9.166;2023-02-20T02:54:14;0.70;;;0.70;;
57891;SDS011;43708;48.828;9.166;2023-02-20T02:56:46;1.30;;;0.80;;
57891;SDS011;43708;48.828;9.166;2023-02-20T02:59:14;1.33;;;0.80;;
57891;SDS011;43708;48.828;9.166;2023-02-20T03:01:47;1.58;;;0.77;;
57891;SDS011;43708;48.828;9.166;2023-02-20T03:04:17;0.93;;;0.88;;
57891;SDS011;43708;48.828;9.166;2023-02-20T03:06:47;0.90;;;0.70;;
57891;SDS011;43708;48.828;9.166;2023-02-20T03:09:59;1.40;;;0.88;;
57891;SDS011;43708;48.828;9.166;2023-02-20T03:12:08;1.20;;;0.70;;
57891;SDS011;43708;48.828;9.166;2023-02-20T03:17:29;1.52;;;0.80;;
57891;SDS011;43708;48.828;9.166;2023-02-20T03:20:01;0.70;;;0.70;;
57891;SDS011;43708;48.828;9.166;2023-02-20T03:22:36;0.80;;;0.70;;
57891;SDS011;43708;48.828;9.166;2023-02-20T03:25:25;0.73;;;0.50;;
57891;SDS011;43708;48.828;9.166;2023-02-20T03:27:57;0.88;;;0.60;;
57891;SDS011;43708;48.828;9.166;2023-02-20T03:30:30;0.68;;;0.60;;
57891;SDS011;43708;48.828;9.166;2023-02-20T03:35:59;0.95;;;0.60;;
57891;SDS011;43708;48.828;9.166;2023-02-20T03:38:49;0.63;;;0.60;;
57891;SDS011;43708;48.828;9.166;2023-02-20T03:41:41;0.65;;;0.60;;
57891;SDS011;43708;48.828;9.166;2023-02-20T03:44:28;0.95;;;0.50;;
57891;SDS011;43708;48.828;9.166;2023-02-20T03:46:56;0.82;;;0.60;;
57891;SDS011;43708;48.828;9.166;2023-02-20T03:49:25;0.77;;;0.70;;
57891;SDS011;43708;48.828;9.166;2023-02-20T03:52:02;0.52;;;0.52;;
57891;SDS011;43708;48.828;9.166;2023-02-20T03:54:28;0.60;;;0.60;;
57891;SDS011;43708;48.828;9.166;2023-02-20T03:56:59;0.63;;;0.50;;
57891;SDS011;43708;48.828;9.166;2023-02-20T03:59:35;0.55;;;0.50;;
57891;SDS011;43708;48.828;9.166;2023-02-20T04:02:13;1.52;;;0.80;;
57891;SDS011;43708;48.828;9.166;2023-02-20T04:04:46;0.52;;;0.45;;
57891;SDS011;43708;48.828;9.166;2023-02-20T04:07:15;0.57;;;0.57;;
57891;SDS011;43708;48.828;9.166;2023-02-20T04:09:46;0.60;;;0.50;;
57891;SDS011;43708;48.828;9.166;2023-02-20T04:14:40;0.52;;;0.50;;
57891;SDS011;43708;48.828;9.166;2023-02-20T04:17:09;0.50;;;0.43;;
57891;SDS011;43708;48.828;9.166;2023-02-20T04:19:38;0.75;;;0.60;;
57891;SDS011;43708;48.828;9.166;2023-02-20T04:22:05;0.50;;;0.50;;
57891;SDS011;43708;48.828;9.166;2023-02-20T04:24:42;0.50;;;0.50;;
57891;SDS011;43708;48.828;9.166;2023-02-20T04:27:12;0.50;;;0.40;;
57891;SDS011;43708;48.828;9.166;2023-02-20T04:29:38;0.60;;;0.60;;
57891;SDS011;43708;48.828;9.166;2023-02-20T04:32:04;0.60;;;0.43;;
57891;SDS011;43708;48.828;9.166;2023-02-20T04:34:30;0.50;;;0.50;;
57891;SDS011;43708;48.828;9.166;2023-02-20T04:37:02;0.93;;;0.60;;
57891;SDS011;43708;48.828;9.166;2023-02-20T04:39:33;0.95;;;0.70;;
57891;SDS011;43708;48.828;9.166;2023-02-20T04:41:59;1.48;;;0.60;;
57891;SDS011;43708;48.828;9.166;2023-02-20T04:44:24;0.60;;;0.60;;
57891;SDS011;43708;48.828;9.166;2023-02-20T04:46:56;0.68;;;0.68;;
57891;SDS011;43708;48.828;9.166;2023-02-20T04:49:22;0.50;;;0.50;;
57891;SDS011;43708;48.828;9.166;2023-02-20T04:51:48;1.20;;;0.43;;
57891;SDS011;43708;48.828;9.166;2023-02-20T04:54:14;0.60;;;0.57;;
57891;SDS011;43708;48.828;9.166;2023-02-20T04:56:40;0.57;;;0.50;;
57891;SDS011;43708;48.828;9.166;2023-02-20T04:59:05;0.73;;;0.70;;
57891;SDS011;43708;48.828;9.166;2023-02-20T05:01:31;0.77;;;0.60;;
57891;SDS011;43708;48.828;9.166;2023-02-20T05:03:56;0.40;;;0.40;;
57891;SDS011;43708;48.828;9.166;2023-02-20T05:06:22;0.40;;;0.30;;
57891;SDS011;43708;48.828;9.166;2023-02-20T05:08:48;0.75;;;0.50;;
57891;SDS011;43708;48.828;9.166;2023-02-20T05:11:13;0.60;;;0.60;;
57891;SDS011;43708;48.828;9.166;2023-02-20T05:13:39;0.85;;;0.68;;
57891;SDS011;43708;48.828;9.166;2023-02-20T05:16:05;0.57;;;0.47;;
57891;SDS011;43708;48.828;9.166;2023-02-20T05:18:32;0.68;;;0.50;;
57891;SDS011;43708;48.828;9.166;2023-02-20T05:20:58;0.80;;;0.50;;
57891;SDS011;43708;48.828;9.166;2023-02-20T05:23:44;0.57;;;0.50;;
57891;SDS011;43708;48.828;9.166;2023-02-20T05:26:11;0.90;;;0.60;;
57891;SDS011;43708;48.828;9.166;2023-02-20T05:28:41;0.60;;;0.60;;
57891;SDS011;43708;48.828;9.166;2023-02-20T05:31:06;0.57;;;0.57;;
57891;SDS011;43708;48.828;9.166;2023-02-20T05:33:32;0.68;;;0.52;;
57891;SDS011;43708;48.828;9.166;2023-02-20T05:35:58;0.73;;;0.70;;
57891;SDS011;43708;48.828;9.166;2023-02-20T05:38:24;0.50;;;0.47;;
57891;SDS011;43708;48.828;9.166;2023-02-20T05:40:50;0.40;;;0.30;;
57891;SDS011;43708;48.828;9.166;2023-02-20T05:43:15;1.13;;;0.70;;
57891;SDS011;43708;48.828;9.166;2023-02-20T05:45:41;0.70;;;0.57;;
57891;SDS011;43708;48.828;9.166;2023-02-20T05:48:07;0.50;;;0.50;;
57891;SDS011;43708;48.828;9.166;2023-02-20T05:50:33;0.70;;;0.60;;
57891;SDS011;43708;48.828;9.166;2023-02-20T05:52:59;0.63;;;0.50;;
57891;SDS011;43708;48.828;9.166;2023-02-20T05:55:25;0.90;;;0.60;;
57891;SDS011;43708;48.828;9.166;2023-02-20T05:57:50;0.60;;;0.50;;
57891;SDS011;43708;48.828;9.166;2023-02-20T06:00:16;1.15;;;0.70;;
57891;SDS011;43708;48.828;9.166;2023-02-20T06:02:41;0.70;;;0.50;;
57891;SDS011;43708;48.828;9.166;2023-02-20T06:05:07;0.57;;;0.47;;
57891;SDS011;43708;48.828;9.166;2023-02-20T06:07:33;0.82;;;0.50;;
57891;SDS011;43708;48.828;9.166;2023-02-20T06:09:59;1.10;;;0.70;;
57891;SDS011;43708;48.828;9.166;2023-02-20T06:12:25;2.38;;;0.40;;
57891;SDS011;43708;48.828;9.166;2023-02-20T06:14:50;0.95;;;0.52;;
57891;SDS011;43708;48.828;9.166;2023-02-20T06:17:16;2.20;;;0.60;;
57891;SDS011;43708;48.828;9.166;2023-02-20T06:19:41;1.55;;;0.70;;
57891;SDS011;43708;48.828;9.166;2023-02-20T06:22:07;1.00;;;0.68;;
57891;SDS011;43708;48.828;9.166;2023-02-20T06:24:33;3.00;;;0.80;;
57891;SDS011;43708;48.828;9.166;2023-02-20T06:26:58;0.60;;;0.60;;
57891;SDS011;43708;48.828;9.166;2023-02-20T06:29:25;0.80;;;0.68;;
57891;SDS011;43708;48.828;9.166;2023-02-20T06:31:51;0.85;;;0.70;;
57891;SDS011;43708;48.828;9.166;2023-02-20T06:34:17;0.82;;;0.60;;
57891;SDS011;43708;48.828;9.166;2023-02-20T06:36:43;0.55;;;0.50;;
57891;SDS011;43708;48.828;9.166;2023-02-20T06:39:10;1.15;;;0.50;;
57891;SDS011;43708;48.828;9.166;2023-02-20T06:41:37;0.52;;;0.52;;
57891;SDS011;43708;48.828;9.166;2023-02-20T06:44:03;0.85;;;0.45;;
57891;SDS011;43708;48.828;9.166;2023-02-20T06:46:29;0.75;;;0.60;;
57891;SDS011;43708;48.828;9.166;2023-02-20T06:48:56;0.70;;;0.50;;
57891;SDS011;43708;48.828;9.166;2023-02-20T06:51:29;0.95;;;0.50;;
57891;SDS011;43708;48.828;9.166;2023-02-20T06:53:57;0.43;;;0.38;;
57891;SDS011;43708;48.828;9.166;2023-02-20T06:56:24;1.88;;;0.50;;
57891;SDS011;43708;48.828;9.166;2023-02-20T06:58:52;1.05;;;0.60;;
57891;SDS011;43708;48.828;9.166;2023-02-20T07:01:22;0.50;;;0.45;;
57891;SDS011;43708;48.828;9.166;2023-02-20T07:03:52;1.27;;;0.60;;
57891;SDS011;43708;48.828;9.166;2023-02-20T07:06:19;0.77;;;0.60;;
57891;SDS011;43708;48.828;9.166;2023-02-20T07:08:45;1.35;;;0.63;;
57891;SDS011;43708;48.828;9.166;2023-02-20T07:11:11;0.60;;;0.40;;
57891;SDS011;43708;48.828;9.166;2023-02-20T07:13:38;0.60;;;0.45;;
57891;SDS011;43708;48.828;9.166;2023-02-20T07:16:03;1.05;;;0.45;;
57891;SDS011;43708;48.828;9.166;2023-02-20T07:18:29;1.70;;;0.52;;
57891;SDS011;43708;48.828;9.166;2023-02-20T07:20:55;0.90;;;0.52;;
57891;SDS011;43708;48.828;9.166;2023-02-20T07:23:21;0.52;;;0.45;;
57891;SDS011;43708;48.828;9.166;2023-02-20T07:25:47;0.60;;;0.57;;
57891;SDS011;43708;48.828;9.166;2023-02-20T07:28:14;0.55;;;0.50;;
57891;SDS011;43708;48.828;9.166;2023-02-20T07:30:41;0.50;;;0.50;;
57891;SDS011;43708;48.828;9.166;2023-02-20T07:33:07;1.52;;;0.80;;
57891;SDS011;43708;48.828;9.166;2023-02-20T07:35:33;0.63;;;0.47;;
57891;SDS011;43708;48.828;9.166;2023-02-20T07:37:58;1.20;;;0.70;;
57891;SDS011;43708;48.828;9.166;2023-02-20T07:40:24;1.00;;;0.85;;
57891;SDS011;43708;48.828;9.166;2023-02-20T07:42:49;0.60;;;0.50;;
57891;SDS011;43708;48.828;9.166;2023-02-20T07:45:15;0.45;;;0.40;;
57891;SDS011;43708;48.828;9.166;2023-02-20T07:47:41;0.50;;;0.50;;
57891;SDS011;43708;48.828;9.166;2023-02-20T07:50:07;0.52;;;0.43;;
57891;SDS011;43708;48.828;9.166;2023-02-20T07:52:33;0.90;;;0.40;;
57891;SDS011;43708;48.828;9.166;2023-02-20T07:54:58;0.55;;;0.50;;
57891;SDS011;43708;48.828;9.166;2023-02-20T07:57:24;0.57;;;0.57;;
57891;SDS011;43708;48.828;9.166;2023-02-20T07:59:49;0.55;;;0.45;;
57891;SDS011;43708;48.828;9.166;2023-02-20T08:02:15;0.63;;;0.45;;
57891;SDS011;43708;48.828;9.166;2023-02-20T08:04:41;0.80;;;0.70;;
57891;SDS011;43708;48.828;9.166;2023-02-20T08:07:07;1.30;;;0.70;;
57891;SDS011;43708;48.828;9.166;2023-02-20T08:09:33;1.38;;;0.63;;
57891;SDS011;43708;48.828;9.166;2023-02-20T08:11:58;1.40;;;0.80;;
57891;SDS011;43708;48.828;9.166;2023-02-20T08:14:24;1.20;;;0.90;;
57891;SDS011;43708;48.828;9.166;2023-02-20T08:16:52;3.05;;;1.00;;
57891;SDS011;43708;48.828;9.166;2023-02-20T08:19:18;0.75;;;0.70;;
57891;SDS011;43708;48.828;9.166;2023-02-20T08:21:43;1.23;;;0.63;;
57891;SDS011;43708;48.828;9.166;2023-02-20T08:24:09;0.63;;;0.60;;
57891;SDS011;43708;48.828;9.166;2023-02-20T08:26:34;1.23;;;0.60;;
57891;SDS011;43708;48.828;9.166;2023-02-20T08:29:08;0.50;;;0.40;;
57891;SDS011;43708;48.828;9.166;2023-02-20T08:31:34;0.77;;;0.70;;
57891;SDS011;43708;48.828;9.166;2023-02-20T08:33:59;1.33;;;0.80;;
57891;SDS011;43708;48.828;9.166;2023-02-20T08:36:25;1.45;;;0.70;;
57891;SDS011;43708;48.828;9.166;2023-02-20T08:38:50;0.90;;;0.80;;
57891;SDS011;43708;48.828;9.166;2023-02-20T08:41:16;2.45;;;0.80;;
57891;SDS011;43708;48.828;9.166;2023-02-20T08:43:42;0.77;;;0.70;;
57891;SDS011;43708;48.828;9.166;2023-02-20T08:46:08;1.52;;;1.00;;
57891;SDS011;43708;48.828;9.166;2023-02-20T08:48:34;0.80;;;0.80;;
57891;SDS011;43708;48.828;9.166;2023-02-20T08:51:00;4.25;;;0.85;;
57891;SDS011;43708;48.828;9.166;2023-02-20T08:53:26;0.82;;;0.82;;
57891;SDS011;43708;48.828;9.166;2023-02-20T08:55:52;0.75;;;0.63;;
57891;SDS011;43708;48.828;9.166;2023-02-20T08:58:21;1.35;;;0.60;;
57891;SDS011;43708;48.828;9.166;2023-02-20T09:00:48;1.33;;;0.80;;
57891;SDS011;43708;48.828;9.166;2023-02-20T09:03:14;2.10;;;0.60;;
57891;SDS011;43708;48.828;9.166;2023-02-20T09:05:40;1.48;;;0.80;;
57891;SDS011;43708;48.828;9.166;2023-02-20T09:08:07;0.60;;;0.60;;
57891;SDS011;43708;48.828;9.166;2023-02-20T09:10:33;1.52;;;0.80;;
57891;SDS011;43708;48.828;9.166;2023-02-20T09:12:59;1.27;;;0.60;;
57891;SDS011;43708;48.828;9.166;2023-02-20T09:15:24;1.25;;;0.68;;
57891;SDS011;43708;48.828;9.166;2023-02-20T09:17:50;0.80;;;0.63;;
57891;SDS011;43708;48.828;9.166;2023-02-20T09:20:17;1.00;;;0.50;;
57891;SDS011;43708;48.828;9.166;2023-02-20T09:22:45;0.98;;;0.73;;
57891;SDS011;43708;48.828;9.166;2023-02-20T09:25:12;0.65;;;0.57;;
57891;SDS011;43708;48.828;9.166;2023-02-20T09:27:40;1.20;;;0.85;;
57891;SDS011;43708;48.828;9.166;2023-02-20T09:30:06;1.08;;;0.90;;
57891;SDS011;43708;48.828;9.166;2023-02-20T09:32:32;0.82;;;0.60;;
57891;SDS011;43708;48.828;9.166;2023-02-20T09:34:57;1.15;;;0.70;;
57891;SDS011;43708;48.828;9.166;2023-02-20T09:37:23;0.60;;;0.50;;
57891;SDS011;43708;48.828;9.166;2023-02-20T09:39:50;0.68;;;0.60;;
57891;SDS011;43708;48.828;9.166;2023-02-20T09:45:12;1.42;;;0.60;;
57891;SDS011;43708;48.828;9.166;2023-02-20T09:55:58;0.40;;;0.40;;
57891;SDS011;43708;48.828;9.166;2023-02-20T10:01:13;0.70;;;0.50;;
57891;SDS011;43708;48.828;9.166;2023-02-20T10:03:55;0.63;;;0.60;;
57891;SDS011;43708;48.828;9.166;2023-02-20T10:06:26;1.15;;;0.52;;
57891;SDS011;43708;48.828;9.166;2023-02-20T10:08:54;0.90;;;0.65;;
57891;SDS011;43708;48.828;9.166;2023-02-20T10:11:29;0.70;;;0.60;;
57891;SDS011;43708;48.828;9.166;2023-02-20T10:17:02;0.90;;;0.70;;
57891;SDS011;43708;48.828;9.166;2023-02-20T10:22:25;1.00;;;0.70;;
57891;SDS011;43708;48.828;9.166;2023-02-20T10:30:16;0.90;;;0.63;;
57891;SDS011;43708;48.828;9.166;2023-02-20T10:32:51;0.50;;;0.45;;
57891;SDS011;43708;48.828;9.166;2023-02-20T10:38:20;0.93;;;0.70;;
57891;SDS011;43708;48.828;9.166;2023-02-20T10:40:56;1.88;;;1.00;;
57891;SDS011;43708;48.828;9.166;2023-02-20T10:43:54;0.88;;;0.55;;
57891;SDS011;43708;48.828;9.166;2023-02-20T10:46:34;1.48;;;0.70;;
57891;SDS011;43708;48.828;9.166;2023-02-20T10:49:09;1.25;;;0.63;;
57891;SDS011;43708;48.828;9.166;2023-02-20T10:51:44;1.23;;;0.60;;
57891;SDS011;43708;48.828;9.166;2023-02-20T10:54:22;0.98;;;0.65;;
57891;SDS011;43708;48.828;9.166;2023-02-20T11:00:03;0.85;;;0.60;;
57891;SDS011;43708;48.828;9.166;2023-02-20T11:02:37;0.93;;;0.50;;
57891;SDS011;43708;48.828;9.166;2023-02-20T11:05:09;0.50;;;0.50;;
57891;SDS011;43708;48.828;9.166;2023-02-20T11:07:36;1.63;;;0.90;;
57891;SDS011;43708;48.828;9.166;2023-02-20T11:10:03;0.75;;;0.57;;
57891;SDS011;43708;48.828;9.166;2023-02-20T11:12:32;0.68;;;0.68;;
57891;SDS011;43708;48.828;9.166;2023-02-20T11:15:11;0.77;;;0.70;;
57891;SDS011;43708;48.828;9.166;2023-02-20T11:17:39;0.70;;;0.60;;
57891;SDS011;43708;48.828;9.166;2023-02-20T11:23:04;0.93;;;0.55;;
57891;SDS011;43708;48.828;9.166;2023-02-20T11:25:30;1.05;;;0.80;;
57891;SDS011;43708;48.828;9.166;2023-02-20T11:30:37;1.75;;;0.65;;
57891;SDS011;43708;48.828;9.166;2023-02-20T11:35:44;1.98;;;0.63;;
57891;SDS011;43708;48.828;9.166;2023-02-20T11:40:46;1.00;;;0.68;;
57891;SDS011;43708;48.828;9.166;2023-02-20T11:43:19;0.82;;;0.57;;
57891;SDS011;43708;48.828;9.166;2023-02-20T11:45:47;0.93;;;0.60;;
57891;SDS011;43708;48.828;9.166;2023-02-20T11:48:17;0.63;;;0.63;;
57891;SDS011;43708;48.828;9.166;2023-02-20T11:50:48;1.05;;;0.60;;
57891;SDS011;43708;48.828;9.166;2023-02-20T11:53:24;1.30;;;0.60;;
57891;SDS011;43708;48.828;9.166;2023-02-20T11:56:09;0.60;;;0.60;;
57891;SDS011;43708;48.828;9.166;2023-02-20T11:58:40;1.10;;;0.70;;
57891;SDS011;43708;48.828;9.166;2023-02-20T12:01:07;1.42;;;0.60;;
57891;SDS011;43708;48.828;9.166;2023-02-20T12:03:53;0.93;;;0.70;;
57891;SDS011;43708;48.828;9.166;2023-02-20T12:09:06;1.33;;;0.90;;
57891;SDS011;43708;48.828;9.166;2023-02-20T12:11:42;0.93;;;0.60;;
57891;SDS011;43708;48.828;9.166;2023-02-20T12:14:09;1.42;;;0.65;;
57891;SDS011;43708;48.828;9.166;2023-02-20T12:28:22;1.17;;;0.68;;
57891;SDS011;43708;48.828;9.166;2023-02-20T12:31:04;0.40;;;0.40;;
57891;SDS011;43708;48.828;9.166;2023-02-20T12:38:55;0.68;;;0.60;;
57891;SDS011;43708;48.828;9.166;2023-02-20T12:44:13;0.65;;;0.30;;
57891;SDS011;43708;48.828;9.166;2023-02-20T12:55:23;0.40;;;0.30;;
57891;SDS011;43708;48.828;9.166;2023-02-20T12:57:54;0.40;;;0.28;;
57891;SDS011;43708;48.828;9.166;2023-02-20T13:03:05;0.60;;;0.38;;
57891;SDS011;43708;48.828;9.166;2023-02-20T13:05:36;0.98;;;0.60;;
57891;SDS011;43708;48.828;9.166;2023-02-20T13:08:11;0.60;;;0.40;;
57891;SDS011;43708;48.828;9.166;2023-02-20T13:10:48;0.40;;;0.40;;
57891;SDS011;43708;48.828;9.166;2023-02-20T13:13:23;0.55;;;0.35;;
57891;SDS011;43708;48.828;9.166;2023-02-20T13:16:16;0.40;;;0.40;;
57891;SDS011;43708;48.828;9.166;2023-02-20T13:18:48;0.40;;;0.30;;
57891;SDS011;43708;48.828;9.166;2023-02-20T13:21:47;0.43;;;0.30;;
57891;SDS011;43708;48.828;9.166;2023-02-20T13:26:48;0.75;;;0.50;;
57891;SDS011;43708;48.828;9.166;2023-02-20T13:29:20;0.50;;;0.43;;
57891;SDS011;43708;48.828;9.166;2023-02-20T13:31:53;0.45;;;0.30;;
57891;SDS011;43708;48.828;9.166;2023-02-20T13:36:49;0.60;;;0.40;;
57891;SDS011;43708;48.828;9.166;2023-02-20T13:55:12;0.77;;;0.40;;
57891;SDS011;43708;48.828;9.166;2023-02-20T13:57:44;0.32;;;0.30;;
57891;SDS011;43708;48.828;9.166;2023-02-20T14:03:08;0.52;;;0.52;;
57891;SDS011;43708;48.828;9.166;2023-02-20T14:06:07;0.38;;;0.28;;
57891;SDS011;43708;48.828;9.166;2023-02-20T14:08:41;0.55;;;0.40;;
57891;SDS011;43708;48.828;9.166;2023-02-20T14:11:14;0.73;;;0.50;;
57891;SDS011;43708;48.828;9.166;2023-02-20T14:13:58;0.45;;;0.40;;
57891;SDS011;43708;48.828;9.166;2023-02-20T14:16:29;0.52;;;0.43;;
57891;SDS011;43708;48.828;9.166;2023-02-20T14:19:01;0.47;;;0.47;;
57891;SDS011;43708;48.828;9.166;2023-02-20T14:21:31;0.47;;;0.35;;
57891;SDS011;43708;48.828;9.166;2023-02-20T14:24:10;0.77;;;0.50;;
57891;SDS011;43708;48.828;9.166;2023-02-20T14:26:44;0.45;;;0.45;;
57891;SDS011;43708;48.828;9.166;2023-02-20T14:31:59;0.43;;;0.35;;
57891;SDS011;43708;48.828;9.166;2023-02-20T14:37:21;0.47;;;0.47;;
57891;SDS011;43708;48.828;9.166;2023-02-20T14:42:57;0.70;;;0.32;;
57891;SDS011;43708;48.828;9.166;2023-02-20T14:45:25;0.98;;;0.50;;
57891;SDS011;43708;48.828;9.166;2023-02-20T14:48:00;0.50;;;0.30;;
57891;SDS011;43708;48.828;9.166;2023-02-20T14:50:27;0.40;;;0.35;;
57891;SDS011;43708;48.828;9.166;2023-02-20T14:55:42;0.75;;;0.40;;
57891;SDS011;43708;48.828;9.166;2023-02-20T14:58:12;0.47;;;0.32;;
57891;SDS011;43708;48.828;9.166;2023-02-20T15:00:40;1.30;;;0.40;;
57891;SDS011;43708;48.828;9.166;2023-02-20T15:03:08;0.50;;;0.50;;
57891;SDS011;43708;48.828;9.166;2023-02-20T15:05:45;0.43;;;0.40;;
57891;SDS011;43708;48.828;9.166;2023-02-20T15:10:52;0.65;;;0.50;;
57891;SDS011;43708;48.828;9.166;2023-02-20T15:13:21;0.95;;;0.50;;
57891;SDS011;43708;48.828;9.166;2023-02-20T15:15:48;0.60;;;0.30;;
57891;SDS011;43708;48.828;9.166;2023-02-20T15:18:29;0.40;;;0.30;;
57891;SDS011;43708;48.828;9.166;2023-02-20T15:21:06;1.75;;;0.47;;
57891;SDS011;43708;48.828;9.166;2023-02-20T15:23:33;0.60;;;0.40;;
57891;SDS011;43708;48.828;9.166;2023-02-20T15:29:10;1.58;;;0.63;;
57891;SDS011;43708;48.828;9.166;2023-02-20T15:31:38;0.73;;;0.50;;
57891;SDS011;43708;48.828;9.166;2023-02-20T15:34:11;0.80;;;0.70;;
57891;SDS011;43708;48.828;9.166;2023-02-20T15:36:40;1.33;;;0.43;;
57891;SDS011;43708;48.828;9.166;2023-02-20T15:39:08;0.60;;;0.60;;
57891;SDS011;43708;48.828;9.166;2023-02-20T15:41:35;0.90;;;0.60;;
57891;SDS011;43708;48.828;9.166;2023-02-20T15:44:01;0.85;;;0.60;;
57891;SDS011;43708;48.828;9.166;2023-02-20T15:46:27;1.48;;;0.80;;
57891;SDS011;43708;48.828;9.166;2023-02-20T15:48:53;1.33;;;0.60;;
57891;SDS011;43708;48.828;9.166;2023-02-20T15:51:20;1.10;;;0.52;;
57891;SDS011;43708;48.828;9.166;2023-02-20T15:53:47;0.93;;;0.73;;
57891;SDS011;43708;48.828;9.166;2023-02-20T15:56:15;0.60;;;0.60;;
57891;SDS011;43708;48.828;9.166;2023-02-20T15:58:41;1.05;;;0.57;;
57891;SDS011;43708;48.828;9.166;2023-02-20T16:01:08;1.13;;;0.77;;
57891;SDS011;43708;48.828;9.166;2023-02-20T16:03:34;0.75;;;0.60;;
57891;SDS011;43708;48.828;9.166;2023-02-20T16:06:00;1.67;;;0.80;;
57891;SDS011;43708;48.828;9.166;2023-02-20T16:08:26;2.42;;;0.95;;
57891;SDS011;43708;48.828;9.166;2023-02-20T16:10:52;0.82;;;0.70;;
57891;SDS011;43708;48.828;9.166;2023-02-20T16:13:22;0.98;;;0.70;;
57891;SDS011;43708;48.828;9.166;2023-02-20T16:15:50;0.80;;;0.60;;
57891;SDS011;43708;48.828;9.166;2023-02-20T16:18:16;1.95;;;0.68;;
57891;SDS011;43708;48.828;9.166;2023-02-20T16:20:41;1.10;;;0.73;;
57891;SDS011;43708;48.828;9.166;2023-02-20T16:23:07;0.70;;;0.50;;
57891;SDS011;43708;48.828;9.166;2023-02-20T16:25:34;0.50;;;0.50;;
57891;SDS011;43708;48.828;9.166;2023-02-20T16:28:00;1.13;;;0.80;;
57891;SDS011;43708;48.828;9.166;2023-02-20T16:30:28;0.55;;;0.52;;
57891;SDS011;43708;48.828;9.166;2023-02-20T16:35:35;0.82;;;0.55;;
57891;SDS011;43708;48.828;9.166;2023-02-20T16:38:00;0.95;;;0.57;;
57891;SDS011;43708;48.828;9.166;2023-02-20T16:40:26;0.60;;;0.57;;
57891;SDS011;43708;48.828;9.166;2023-02-20T16:42:51;0.60;;;0.60;;
57891;SDS011;43708;48.828;9.166;2023-02-20T16:45:18;0.93;;;0.73;;
57891;SDS011;43708;48.828;9.166;2023-02-20T16:47:47;1.65;;;0.60;;
57891;SDS011;43708;48.828;9.166;2023-02-20T16:50:14;0.82;;;0.70;;
57891;SDS011;43708;48.828;9.166;2023-02-20T16:52:44;1.00;;;0.70;;
57891;SDS011;43708;48.828;9.166;2023-02-20T16:55:20;1.10;;;0.65;;
57891;SDS011;43708;48.828;9.166;2023-02-20T16:57:54;0.40;;;0.40;;
57891;SDS011;43708;48.828;9.166;2023-02-20T17:00:22;0.52;;;0.52;;
57891;SDS011;43708;48.828;9.166;2023-02-20T17:02:52;0.55;;;0.43;;
57891;SDS011;43708;48.828;9.166;2023-02-20T17:05:20;0.82;;;0.60;;
57891;SDS011;43708;48.828;9.166;2023-02-20T17:07:48;2.45;;;0.80;;
57891;SDS011;43708;48.828;9.166;2023-02-20T17:10:13;0.90;;;0.60;;
57891;SDS011;43708;48.828;9.166;2023-02-20T17:12:40;0.68;;;0.65;;
57891;SDS011;43708;48.828;9.166;2023-02-20T17:15:06;0.70;;;0.70;;
57891;SDS011;43708;48.828;9.166;2023-02-20T17:17:33;1.00;;;0.60;;
57891;SDS011;43708;48.828;9.166;2023-02-20T17:19:59;0.50;;;0.50;;
57891;SDS011;43708;48.828;9.166;2023-02-20T17:22:26;0.95;;;0.68;;
57891;SDS011;43708;48.828;9.166;2023-02-20T17:24:53;1.27;;;0.70;;
57891;SDS011;43708;48.828;9.166;2023-02-20T17:27:19;0.80;;;0.50;;